Colby, KS (67701)

7:58 PM CST on December 03, 2016 (GMT -0600)
630 Woofter Ave | | Change Station

Elev 3186 ft 39.40 °N, 101.06 °W | Updated 12 seconds ago

Overcast
Overcast
36.3 °F
Feels Like 36 °F
N
0.0
Wind Variable Wind from ESE
Gusts 0.0 mph

Today
High -- | Low -- °F
--% Chance of Precip.
Yesterday
High -- | Low -- °F
Precip. -- in
Pressure 30.02 in
Visibility 0.2 miles
Clouds Overcast 300 ft
Windchill 36 °F
Dew Point 32 °F
Humidity 84%
Rainfall 0.00 in
Snow Depth Not available.
7:47 AM 5:20 PM
Waxing Crescent, 18% visible
METAR KCBK 040135Z AUTO 18004KT 1/4SM -SN OVC003 00/00 A3002 RMK AO2
Pressure 30.02 in
Visibility 0.2 miles
Clouds Overcast 300 ft
Windchill 36 °F
Dew Point 32 °F
Humidity 84%
Rainfall 0.00 in
Snow Depth Not available.
7:47 AM 5:20 PM
Waxing Crescent, 18% visible
METAR KCBK 040135Z AUTO 18004KT 1/4SM -SN OVC003 00/00 A3002 RMK AO2

10-Day Weather Forecast

Almanac

Astronomy

Dec. 03, 2016 Rise Set
Actual Time
Civil Twilight
Nautical Twilight
Astronomical Twilight
Moon
Length of Visible Light
Length of Day
Tomorrow will be .
, % of the Moon is Illuminated

Today's Extremes

State Highs State Lows

Community

WunderPhotos

Upload Photos

1,955,560 photos uploaded!

WunderBlog® & News

Nearby

Air Quality

  Air Quality AQ Index Pollutant
Not available.

Snow Depth

Station Depth Elevation

Earthquake Activity

City Distance Mag. Time & Date
Minimum magnitude displayed is 2.5.

Coastal Water Temperatures

Place Temperature

Stations

Nearby Weather Stations

Station Location Temp. Windchill Dew Point Humidity Wind Precip. Elev Updated Type
                   

Watches & Warnings

There are currently no watches in effect.